createdAt,value
2023-03-22T00:01:49.844Z,2.10
2023-03-22T00:04:35.019Z,2.40
2023-03-22T00:07:20.243Z,2.33
2023-03-22T00:10:06.096Z,1.97
2023-03-22T00:12:52.173Z,2.07
2023-03-22T00:15:37.367Z,1.87
2023-03-22T00:18:22.491Z,2.30
2023-03-22T00:21:12.318Z,2.10
2023-03-22T00:23:57.501Z,1.80
2023-03-22T00:26:42.520Z,1.87
2023-03-22T00:29:27.659Z,2.20
2023-03-22T00:32:12.777Z,2.07
2023-03-22T00:34:57.699Z,1.73
2023-03-22T00:37:46.218Z,2.03
2023-03-22T00:40:30.994Z,2.17
2023-03-22T00:43:16.882Z,2.40
2023-03-22T00:46:02.412Z,1.90
2023-03-22T00:48:48.684Z,1.73
2023-03-22T00:51:34.287Z,1.77
2023-03-22T00:54:19.697Z,2.30
2023-03-22T00:57:04.680Z,1.60
2023-03-22T00:59:50.453Z,2.07
2023-03-22T01:02:35.667Z,1.63
2023-03-22T01:05:21.906Z,1.77
2023-03-22T01:08:10.645Z,1.67
2023-03-22T01:10:55.586Z,1.67
2023-03-22T01:13:43.998Z,1.60
2023-03-22T01:16:28.776Z,1.90
2023-03-22T01:19:15.096Z,1.40
2023-03-22T01:22:00.860Z,2.20
2023-03-22T01:24:46.240Z,1.80
2023-03-22T01:27:31.735Z,1.63
2023-03-22T01:30:17.012Z,1.63
2023-03-22T01:33:02.392Z,1.70
2023-03-22T01:35:49.213Z,1.40
2023-03-22T01:38:34.678Z,1.80
2023-03-22T01:41:21.055Z,1.63
2023-03-22T01:44:09.818Z,1.53
2023-03-22T01:46:55.270Z,1.60
2023-03-22T01:49:40.813Z,1.80
2023-03-22T01:52:26.289Z,1.50
2023-03-22T01:55:27.852Z,1.57
2023-03-22T01:58:38.047Z,1.80
2023-03-22T02:01:25.780Z,1.57
2023-03-22T02:04:21.109Z,1.40
2023-03-22T02:07:15.220Z,1.67
2023-03-22T02:10:01.943Z,1.50
2023-03-22T02:13:17.485Z,1.50
2023-03-22T02:16:34.921Z,1.40
2023-03-22T02:19:57.045Z,1.20
2023-03-22T02:23:14.072Z,1.40
2023-03-22T02:26:17.833Z,1.83
2023-03-22T02:29:09.025Z,1.30
2023-03-22T02:32:28.562Z,1.20
2023-03-22T02:36:02.311Z,1.50
2023-03-22T02:38:57.696Z,1.27
2023-03-22T02:42:14.549Z,1.60
2023-03-22T02:45:04.291Z,1.20
2023-03-22T02:48:11.910Z,1.13
2023-03-22T02:51:06.934Z,1.67
2023-03-22T02:54:03.034Z,1.23
2023-03-22T02:57:02.136Z,1.50
2023-03-22T02:59:50.098Z,1.30
2023-03-22T03:02:36.748Z,1.23
2023-03-22T03:05:25.155Z,1.33
2023-03-22T03:08:13.492Z,1.10
2023-03-22T03:11:00.091Z,1.00
2023-03-22T03:13:49.398Z,1.30
2023-03-22T03:16:37.405Z,1.10
2023-03-22T03:19:37.222Z,1.37
2023-03-22T03:22:40.877Z,1.10
2023-03-22T03:25:46.988Z,1.20
2023-03-22T03:28:51.413Z,1.03
2023-03-22T03:32:06.649Z,1.00
2023-03-22T03:34:59.310Z,1.27
2023-03-22T03:37:48.420Z,0.97
2023-03-22T03:41:01.529Z,1.03
2023-03-22T03:43:48.478Z,1.17
2023-03-22T03:46:34.235Z,1.30
2023-03-22T03:49:21.833Z,1.40
2023-03-22T03:52:07.414Z,1.00
2023-03-22T03:54:52.649Z,1.03
2023-03-22T03:57:44.389Z,1.17
2023-03-22T04:00:29.348Z,1.27
2023-03-22T04:03:34.803Z,0.93
2023-03-22T04:06:47.392Z,1.10
2023-03-22T04:09:38.502Z,1.13
2023-03-22T04:12:32.872Z,1.03
2023-03-22T04:15:36.728Z,1.20
2023-03-22T04:18:27.603Z,1.10
2023-03-22T04:21:13.231Z,1.13
2023-03-22T04:24:06.243Z,1.10
2023-03-22T04:26:55.233Z,0.83
2023-03-22T04:29:48.627Z,1.20
2023-03-22T04:32:52.448Z,1.30
2023-03-22T04:35:46.282Z,1.20
2023-03-22T04:38:32.067Z,1.10
2023-03-22T04:41:18.441Z,0.90
2023-03-22T04:44:08.098Z,1.47
2023-03-22T04:46:57.523Z,1.00
2023-03-22T04:49:42.835Z,1.00
2023-03-22T04:52:28.390Z,1.20
2023-03-22T04:55:14.893Z,1.00
2023-03-22T04:58:01.553Z,0.97
2023-03-22T05:00:48.128Z,1.10
2023-03-22T05:03:33.777Z,1.23
2023-03-22T05:06:19.509Z,1.10
2023-03-22T05:09:14.518Z,1.23
2023-03-22T05:11:59.781Z,1.10
2023-03-22T05:14:49.362Z,1.40
2023-03-22T05:17:39.233Z,1.13
2023-03-22T05:20:24.880Z,1.00
2023-03-22T05:23:24.618Z,1.00
2023-03-22T05:26:15.633Z,1.10
2023-03-22T05:29:01.653Z,0.90
2023-03-22T05:32:04.524Z,0.97
2023-03-22T05:34:49.710Z,1.10
2023-03-22T05:37:42.612Z,1.00
2023-03-22T05:40:28.333Z,1.20
2023-03-22T05:43:15.463Z,1.20
2023-03-22T05:46:09.780Z,1.20
2023-03-22T05:49:00.935Z,1.00
2023-03-22T05:51:47.004Z,0.90
2023-03-22T05:54:34.222Z,0.90
2023-03-22T05:57:19.582Z,1.03
2023-03-22T06:00:10.308Z,0.90
2023-03-22T06:03:03.241Z,1.17
2023-03-22T06:05:50.763Z,1.07
2023-03-22T06:08:39.289Z,1.00
2023-03-22T06:11:24.867Z,1.10
2023-03-22T06:14:12.089Z,0.90
2023-03-22T06:17:09.462Z,1.10
2023-03-22T06:19:55.036Z,0.80
2023-03-22T06:22:40.799Z,1.03
2023-03-22T06:25:26.026Z,1.00
2023-03-22T06:28:11.485Z,0.90
2023-03-22T06:31:08.980Z,1.07
2023-03-22T06:34:16.427Z,1.10
2023-03-22T06:37:01.826Z,1.20
2023-03-22T06:39:52.992Z,0.80
2023-03-22T06:42:41.025Z,1.03
2023-03-22T06:45:33.379Z,0.90
2023-03-22T06:48:19.638Z,1.13
2023-03-22T06:51:17.021Z,0.97
2023-03-22T06:54:03.971Z,1.20
2023-03-22T06:56:49.056Z,0.80
2023-03-22T06:59:34.780Z,1.00
2023-03-22T07:02:20.430Z,1.20
2023-03-22T07:05:25.637Z,0.90
2023-03-22T07:08:10.993Z,0.87
2023-03-22T07:11:01.401Z,0.80
2023-03-22T07:13:46.887Z,0.90
2023-03-22T07:16:36.737Z,0.80
2023-03-22T07:19:24.941Z,1.00
2023-03-22T07:22:11.271Z,1.00
2023-03-22T07:24:59.352Z,0.80
2023-03-22T07:27:48.390Z,0.87
2023-03-22T07:30:37.573Z,0.97
2023-03-22T08:37:04.400Z,1.30
2023-03-22T08:39:50.124Z,1.23
2023-03-22T08:42:42.004Z,1.37
2023-03-22T08:45:28.321Z,1.40
2023-03-22T08:48:21.249Z,1.17
2023-03-22T08:51:45.334Z,1.30
2023-03-22T08:54:51.496Z,1.80
2023-03-22T08:57:58.783Z,1.83
2023-03-22T09:01:02.729Z,2.20
2023-03-22T09:04:08.396Z,2.30
2023-03-22T09:06:55.373Z,2.13
2023-03-22T09:09:40.655Z,2.10
2023-03-22T09:12:27.623Z,1.80
2023-03-22T09:15:12.864Z,2.30
2023-03-22T09:18:02.189Z,1.80
2023-03-22T09:20:48.060Z,2.03
2023-03-22T09:23:38.090Z,1.80
2023-03-22T09:26:25.557Z,2.50
2023-03-22T09:29:11.143Z,1.80
2023-03-22T09:31:58.551Z,1.80
2023-03-22T09:34:49.298Z,2.20
2023-03-22T09:37:35.082Z,2.20
2023-03-22T09:40:21.647Z,1.87
2023-03-22T09:43:11.584Z,2.40
2023-03-22T09:45:57.275Z,1.80
2023-03-22T09:48:44.498Z,1.87
2023-03-22T09:51:53.283Z,1.93
2023-03-22T09:54:42.252Z,1.40
2023-03-22T09:57:37.427Z,1.60
2023-03-22T10:00:47.999Z,1.80
2023-03-22T10:03:42.320Z,1.80
2023-03-22T10:06:29.459Z,1.47
2023-03-22T10:09:29.030Z,1.87
2023-03-22T10:12:39.527Z,1.43
2023-03-22T10:15:42.471Z,1.67
2023-03-22T10:18:32.791Z,1.90
2023-03-22T10:21:19.412Z,1.70
2023-03-22T10:24:17.270Z,1.50
2023-03-22T10:27:02.948Z,1.70
2023-03-22T10:30:08.801Z,1.50
2023-03-22T10:33:03.260Z,1.70
2023-03-22T10:35:51.384Z,1.70
2023-03-22T10:38:45.632Z,1.50
2023-03-22T10:41:32.894Z,1.43
2023-03-22T10:44:19.849Z,1.40
2023-03-22T10:47:08.326Z,1.40
2023-03-22T10:49:57.052Z,1.70
2023-03-22T10:52:59.080Z,1.90
2023-03-22T10:55:44.573Z,1.30
2023-03-22T10:58:31.366Z,1.80
2023-03-22T11:01:32.146Z,1.50
2023-03-22T11:04:17.489Z,1.50
2023-03-22T11:07:03.061Z,1.20
2023-03-22T11:09:48.383Z,1.50
2023-03-22T11:12:40.109Z,1.47
2023-03-22T11:15:28.616Z,1.30
2023-03-22T11:18:17.768Z,1.43
2023-03-22T11:21:09.653Z,1.27
2023-03-22T11:23:58.741Z,1.57
2023-03-22T11:27:06.906Z,1.37
2023-03-22T11:29:57.325Z,1.60
2023-03-22T11:32:42.844Z,1.53
2023-03-22T11:35:31.114Z,1.10
2023-03-22T11:38:47.220Z,1.20
2023-03-22T11:41:39.185Z,1.27
2023-03-22T11:44:26.676Z,1.20
2023-03-22T11:47:13.351Z,1.10
2023-03-22T11:50:06.876Z,1.30
2023-03-22T11:52:54.020Z,1.00
2023-03-22T11:55:39.694Z,1.23
2023-03-22T11:58:43.053Z,1.30
2023-03-22T12:02:00.253Z,1.30
2023-03-22T12:04:48.427Z,1.20
2023-03-22T12:07:35.482Z,1.33
2023-03-22T12:10:38.487Z,1.10
2023-03-22T12:13:37.907Z,1.20
2023-03-22T12:16:28.221Z,1.23
2023-03-22T12:19:21.924Z,1.10
2023-03-22T12:22:14.614Z,1.23
2023-03-22T12:25:01.519Z,1.30
2023-03-22T12:27:54.811Z,1.27
2023-03-22T12:30:44.606Z,1.03
2023-03-22T12:33:35.268Z,1.17
2023-03-22T12:36:25.425Z,1.00
2023-03-22T12:39:30.223Z,1.20
2023-03-22T12:42:22.674Z,1.03
2023-03-22T12:45:16.546Z,1.20
2023-03-22T12:48:09.886Z,1.40
2023-03-22T12:51:04.964Z,1.00
2023-03-22T12:53:53.650Z,0.93
2023-03-22T12:56:41.515Z,1.13
2023-03-22T12:59:31.272Z,1.17
2023-03-22T13:02:27.439Z,1.47
2023-03-22T13:05:12.736Z,1.07
2023-03-22T13:07:59.285Z,1.10
2023-03-22T13:11:04.508Z,1.10
2023-03-22T13:13:49.837Z,1.10
2023-03-22T13:16:51.722Z,1.13
2023-03-22T13:19:37.575Z,1.17
2023-03-22T13:22:28.594Z,0.80
2023-03-22T13:25:33.893Z,1.07
2023-03-22T13:28:29.499Z,1.00
2023-03-22T13:31:35.002Z,1.23
2023-03-22T13:34:30.068Z,3.43
2023-03-22T13:37:47.407Z,1.77
2023-03-22T13:40:59.269Z,2.47
2023-03-22T13:43:50.490Z,1.43
2023-03-22T13:46:35.825Z,2.53
2023-03-22T13:49:53.249Z,2.60
2023-03-22T13:52:51.364Z,2.73
2023-03-22T13:55:44.637Z,2.67
2023-03-22T13:58:29.910Z,2.70
2023-03-22T14:01:21.914Z,2.97
2023-03-22T14:04:12.260Z,2.20
2023-03-22T14:07:08.646Z,2.90
2023-03-22T14:10:02.677Z,2.17
2023-03-22T14:12:47.765Z,2.47
2023-03-22T14:15:38.527Z,2.40
2023-03-22T14:18:28.009Z,1.67
2023-03-22T14:21:19.135Z,2.00
